sensor_id;sensor_type;location;lat;lon;timestamp;noise_LAeq;noise_LA_min;noise_LA_max;noise_LA01;noise_LA95
74234;Laerm;62591;55.764;37.718;2023-05-10T00:00:51;41.18;33.19;56.08;;
74234;Laerm;62591;55.764;37.718;2023-05-10T00:03:19;36.38;32.63;46.22;;
74234;Laerm;62591;55.764;37.718;2023-05-10T00:05:48;43.21;33.90;59.19;;
74234;Laerm;62591;55.764;37.718;2023-05-10T00:08:17;36.89;32.86;41.66;;
74234;Laerm;62591;55.764;37.718;2023-05-10T00:10:45;38.32;33.33;48.38;;
74234;Laerm;62591;55.764;37.718;2023-05-10T00:13:15;40.32;33.35;51.82;;
74234;Laerm;62591;55.764;37.718;2023-05-10T00:15:44;36.60;33.11;46.27;;
74234;Laerm;62591;55.764;37.718;2023-05-10T00:18:12;44.15;33.38;57.10;;
74234;Laerm;62591;55.764;37.718;2023-05-10T00:20:41;38.92;33.83;47.01;;
74234;Laerm;62591;55.764;37.718;2023-05-10T00:23:09;42.25;33.24;53.86;;
74234;Laerm;62591;55.764;37.718;2023-05-10T00:25:38;37.69;33.16;44.89;;
74234;Laerm;62591;55.764;37.718;2023-05-10T00:28:06;40.96;33.37;57.47;;
74234;Laerm;62591;55.764;37.718;2023-05-10T00:30:38;44.74;33.63;58.75;;
74234;Laerm;62591;55.764;37.718;2023-05-10T00:33:07;39.83;33.51;50.44;;
74234;Laerm;62591;55.764;37.718;2023-05-10T00:35:35;40.02;33.36;53.74;;
74234;Laerm;62591;55.764;37.718;2023-05-10T00:38:05;40.53;33.81;50.87;;
74234;Laerm;62591;55.764;37.718;2023-05-10T00:40:35;40.49;33.64;51.36;;
74234;Laerm;62591;55.764;37.718;2023-05-10T00:43:30;47.13;34.64;62.96;;
74234;Laerm;62591;55.764;37.718;2023-05-10T00:46:00;44.57;34.14;59.78;;
74234;Laerm;62591;55.764;37.718;2023-05-10T00:48:29;41.34;33.94;55.84;;
74234;Laerm;62591;55.764;37.718;2023-05-10T00:50:58;49.47;34.03;65.91;;
74234;Laerm;62591;55.764;37.718;2023-05-10T00:53:26;40.44;34.61;48.03;;
74234;Laerm;62591;55.764;37.718;2023-05-10T00:55:56;44.33;32.98;61.14;;
74234;Laerm;62591;55.764;37.718;2023-05-10T00:58:24;48.27;34.12;64.20;;
74234;Laerm;62591;55.764;37.718;2023-05-10T01:00:55;46.82;35.68;63.68;;
74234;Laerm;62591;55.764;37.718;2023-05-10T01:03:26;45.98;34.05;63.92;;
74234;Laerm;62591;55.764;37.718;2023-05-10T01:05:55;47.65;33.95;64.53;;
74234;Laerm;62591;55.764;37.718;2023-05-10T01:08:24;46.81;34.68;66.43;;
74234;Laerm;62591;55.764;37.718;2023-05-10T01:10:54;50.37;33.69;65.21;;
74234;Laerm;62591;55.764;37.718;2023-05-10T01:13:30;51.05;34.56;69.14;;
74234;Laerm;62591;55.764;37.718;2023-05-10T01:15:59;48.98;33.31;69.21;;
74234;Laerm;62591;55.764;37.718;2023-05-10T01:18:33;49.51;33.33;69.05;;
74234;Laerm;62591;55.764;37.718;2023-05-10T01:21:13;48.42;33.97;67.95;;
74234;Laerm;62591;55.764;37.718;2023-05-10T01:24:19;46.32;34.12;62.97;;
74234;Laerm;62591;55.764;37.718;2023-05-10T01:27:13;49.48;35.11;67.55;;
74234;Laerm;62591;55.764;37.718;2023-05-10T01:33:09;50.43;34.33;69.17;;
74234;Laerm;62591;55.764;37.718;2023-05-10T01:35:43;49.15;34.28;68.17;;
74234;Laerm;62591;55.764;37.718;2023-05-10T01:38:18;48.51;34.21;67.76;;
74234;Laerm;62591;55.764;37.718;2023-05-10T01:40:56;48.86;33.71;68.26;;
74234;Laerm;62591;55.764;37.718;2023-05-10T01:43:33;48.62;33.57;66.26;;
74234;Laerm;62591;55.764;37.718;2023-05-10T01:46:09;48.23;34.95;63.96;;
74234;Laerm;62591;55.764;37.718;2023-05-10T01:48:40;51.38;35.25;69.33;;
74234;Laerm;62591;55.764;37.718;2023-05-10T01:51:14;48.81;35.27;65.20;;
74234;Laerm;62591;55.764;37.718;2023-05-10T01:53:46;48.77;37.18;68.86;;
74234;Laerm;62591;55.764;37.718;2023-05-10T01:56:16;48.53;35.99;65.65;;
74234;Laerm;62591;55.764;37.718;2023-05-10T01:58:48;49.83;36.32;67.72;;
74234;Laerm;62591;55.764;37.718;2023-05-10T02:01:19;49.37;36.61;68.45;;
74234;Laerm;62591;55.764;37.718;2023-05-10T02:03:53;49.55;35.60;67.93;;
74234;Laerm;62591;55.764;37.718;2023-05-10T02:06:23;47.47;36.58;63.67;;
74234;Laerm;62591;55.764;37.718;2023-05-10T02:08:53;48.46;36.06;59.34;;
74234;Laerm;62591;55.764;37.718;2023-05-10T02:11:24;42.02;35.49;52.57;;
74234;Laerm;62591;55.764;37.718;2023-05-10T02:13:57;46.29;36.43;57.44;;
74234;Laerm;62591;55.764;37.718;2023-05-10T02:16:30;43.11;37.77;56.44;;
74234;Laerm;62591;55.764;37.718;2023-05-10T02:19:02;48.19;36.69;63.55;;
74234;Laerm;62591;55.764;37.718;2023-05-10T02:21:31;42.85;35.77;53.52;;
74234;Laerm;62591;55.764;37.718;2023-05-10T02:24:02;42.81;36.39;55.14;;
74234;Laerm;62591;55.764;37.718;2023-05-10T02:26:33;43.07;37.46;50.88;;
74234;Laerm;62591;55.764;37.718;2023-05-10T02:29:04;46.91;37.27;57.64;;
74234;Laerm;62591;55.764;37.718;2023-05-10T02:31:34;48.11;37.77;66.11;;
74234;Laerm;62591;55.764;37.718;2023-05-10T02:34:08;45.17;37.82;57.19;;
74234;Laerm;62591;55.764;37.718;2023-05-10T02:36:38;47.85;39.06;57.58;;
74234;Laerm;62591;55.764;37.718;2023-05-10T02:39:08;47.62;38.23;60.78;;
74234;Laerm;62591;55.764;37.718;2023-05-10T02:41:40;43.20;36.69;58.02;;
74234;Laerm;62591;55.764;37.718;2023-05-10T02:44:09;45.48;36.88;54.47;;
74234;Laerm;62591;55.764;37.718;2023-05-10T02:46:39;43.99;38.17;53.61;;
74234;Laerm;62591;55.764;37.718;2023-05-10T02:49:09;46.69;39.16;66.56;;
74234;Laerm;62591;55.764;37.718;2023-05-10T02:51:41;50.15;41.10;64.38;;
74234;Laerm;62591;55.764;37.718;2023-05-10T02:54:13;47.52;38.07;56.25;;
74234;Laerm;62591;55.764;37.718;2023-05-10T02:56:47;44.07;38.82;56.82;;
74234;Laerm;62591;55.764;37.718;2023-05-10T02:59:18;47.20;38.87;58.12;;
74234;Laerm;62591;55.764;37.718;2023-05-10T03:01:47;46.72;38.33;62.05;;
74234;Laerm;62591;55.764;37.718;2023-05-10T03:04:17;45.55;38.27;63.95;;
74234;Laerm;62591;55.764;37.718;2023-05-10T03:06:46;47.91;37.56;56.60;;
74234;Laerm;62591;55.764;37.718;2023-05-10T03:09:15;46.89;37.20;54.31;;
74234;Laerm;62591;55.764;37.718;2023-05-10T03:11:52;46.87;39.87;54.23;;
74234;Laerm;62591;55.764;37.718;2023-05-10T03:14:37;46.20;39.62;57.90;;
74234;Laerm;62591;55.764;37.718;2023-05-10T03:17:14;47.31;38.91;62.12;;
74234;Laerm;62591;55.764;37.718;2023-05-10T03:19:50;46.85;40.39;55.77;;
74234;Laerm;62591;55.764;37.718;2023-05-10T03:22:25;46.16;39.49;55.17;;
74234;Laerm;62591;55.764;37.718;2023-05-10T03:24:56;46.35;40.22;59.38;;
74234;Laerm;62591;55.764;37.718;2023-05-10T03:27:36;48.82;39.64;58.09;;
74234;Laerm;62591;55.764;37.718;2023-05-10T03:30:09;48.95;39.96;57.86;;
74234;Laerm;62591;55.764;37.718;2023-05-10T03:32:38;46.57;39.18;55.63;;
74234;Laerm;62591;55.764;37.718;2023-05-10T03:35:09;50.45;39.36;63.25;;
74234;Laerm;62591;55.764;37.718;2023-05-10T03:37:38;48.23;38.82;59.19;;
74234;Laerm;62591;55.764;37.718;2023-05-10T03:40:09;48.18;40.04;55.76;;
74234;Laerm;62591;55.764;37.718;2023-05-10T03:42:40;47.11;39.27;59.89;;
74234;Laerm;62591;55.764;37.718;2023-05-10T03:45:09;48.39;37.88;57.68;;
74234;Laerm;62591;55.764;37.718;2023-05-10T03:47:38;50.27;37.92;59.98;;
74234;Laerm;62591;55.764;37.718;2023-05-10T03:50:09;47.81;40.04;56.89;;
74234;Laerm;62591;55.764;37.718;2023-05-10T03:52:38;48.16;38.75;59.37;;
74234;Laerm;62591;55.764;37.718;2023-05-10T03:55:07;48.33;40.40;58.48;;
74234;Laerm;62591;55.764;37.718;2023-05-10T03:57:37;47.79;40.70;57.82;;
74234;Laerm;62591;55.764;37.718;2023-05-10T04:00:07;50.27;39.60;72.09;;
74234;Laerm;62591;55.764;37.718;2023-05-10T04:02:42;50.36;40.23;64.58;;
74234;Laerm;62591;55.764;37.718;2023-05-10T04:05:18;47.94;40.06;56.60;;
74234;Laerm;62591;55.764;37.718;2023-05-10T04:07:47;51.78;38.70;68.17;;
74234;Laerm;62591;55.764;37.718;2023-05-10T04:10:16;48.38;40.34;60.78;;
74234;Laerm;62591;55.764;37.718;2023-05-10T04:12:45;48.32;39.68;60.66;;
74234;Laerm;62591;55.764;37.718;2023-05-10T04:15:14;49.70;42.17;65.08;;
74234;Laerm;62591;55.764;37.718;2023-05-10T04:17:43;50.29;43.65;69.15;;
74234;Laerm;62591;55.764;37.718;2023-05-10T04:20:12;50.03;40.88;63.52;;
74234;Laerm;62591;55.764;37.718;2023-05-10T04:22:43;45.76;38.59;55.59;;
74234;Laerm;62591;55.764;37.718;2023-05-10T04:25:11;49.51;40.75;54.43;;
74234;Laerm;62591;55.764;37.718;2023-05-10T04:27:40;47.96;39.40;57.59;;
74234;Laerm;62591;55.764;37.718;2023-05-10T04:30:09;48.88;41.69;57.25;;
74234;Laerm;62591;55.764;37.718;2023-05-10T04:32:38;49.30;42.18;57.47;;
74234;Laerm;62591;55.764;37.718;2023-05-10T04:35:07;47.21;38.97;69.12;;
74234;Laerm;62591;55.764;37.718;2023-05-10T04:37:37;49.18;40.94;58.14;;
74234;Laerm;62591;55.764;37.718;2023-05-10T04:40:09;48.82;38.94;62.02;;
74234;Laerm;62591;55.764;37.718;2023-05-10T04:42:39;50.47;43.14;73.81;;
74234;Laerm;62591;55.764;37.718;2023-05-10T04:45:09;48.29;40.22;62.47;;
74234;Laerm;62591;55.764;37.718;2023-05-10T04:47:37;47.97;40.23;57.57;;
74234;Laerm;62591;55.764;37.718;2023-05-10T04:50:07;50.34;39.43;59.10;;
74234;Laerm;62591;55.764;37.718;2023-05-10T04:52:40;47.65;39.56;57.79;;
74234;Laerm;62591;55.764;37.718;2023-05-10T04:55:09;48.21;39.31;59.48;;
74234;Laerm;62591;55.764;37.718;2023-05-10T04:57:38;47.85;40.35;55.52;;
74234;Laerm;62591;55.764;37.718;2023-05-10T05:00:07;48.52;40.08;53.71;;
74234;Laerm;62591;55.764;37.718;2023-05-10T05:02:36;48.50;42.38;53.77;;
74234;Laerm;62591;55.764;37.718;2023-05-10T05:05:06;48.41;41.06;58.44;;
74234;Laerm;62591;55.764;37.718;2023-05-10T05:07:34;49.91;41.54;67.28;;
74234;Laerm;62591;55.764;37.718;2023-05-10T05:10:03;50.26;43.45;59.63;;
74234;Laerm;62591;55.764;37.718;2023-05-10T05:12:34;48.11;40.57;55.13;;
74234;Laerm;62591;55.764;37.718;2023-05-10T05:15:13;50.96;43.12;60.52;;
74234;Laerm;62591;55.764;37.718;2023-05-10T05:17:47;49.34;41.59;60.69;;
74234;Laerm;62591;55.764;37.718;2023-05-10T05:20:15;47.83;41.38;59.35;;
74234;Laerm;62591;55.764;37.718;2023-05-10T05:22:44;50.47;41.04;57.28;;
74234;Laerm;62591;55.764;37.718;2023-05-10T05:25:13;49.57;42.62;64.93;;
74234;Laerm;62591;55.764;37.718;2023-05-10T05:27:43;48.24;40.76;62.48;;
74234;Laerm;62591;55.764;37.718;2023-05-10T05:30:12;48.87;42.37;56.38;;
74234;Laerm;62591;55.764;37.718;2023-05-10T05:32:41;48.22;39.05;66.36;;
74234;Laerm;62591;55.764;37.718;2023-05-10T05:35:09;47.22;38.56;53.22;;
74234;Laerm;62591;55.764;37.718;2023-05-10T05:37:38;50.12;39.79;60.98;;
74234;Laerm;62591;55.764;37.718;2023-05-10T05:40:08;48.93;41.48;66.22;;
74234;Laerm;62591;55.764;37.718;2023-05-10T05:42:36;49.31;42.99;61.39;;
74234;Laerm;62591;55.764;37.718;2023-05-10T05:45:08;49.58;41.04;62.56;;
74234;Laerm;62591;55.764;37.718;2023-05-10T05:47:40;49.53;41.47;57.47;;
74234;Laerm;62591;55.764;37.718;2023-05-10T05:50:09;51.66;44.37;60.52;;
74234;Laerm;62591;55.764;37.718;2023-05-10T05:52:38;49.26;42.56;56.48;;
74234;Laerm;62591;55.764;37.718;2023-05-10T05:55:07;48.42;41.07;58.16;;
74234;Laerm;62591;55.764;37.718;2023-05-10T05:57:35;49.82;42.10;60.39;;
74234;Laerm;62591;55.764;37.718;2023-05-10T06:00:07;49.28;42.25;64.90;;
74234;Laerm;62591;55.764;37.718;2023-05-10T06:02:39;48.50;40.34;57.37;;
74234;Laerm;62591;55.764;37.718;2023-05-10T06:05:08;48.10;39.56;55.62;;
74234;Laerm;62591;55.764;37.718;2023-05-10T06:07:37;50.36;42.09;59.96;;
74234;Laerm;62591;55.764;37.718;2023-05-10T06:10:06;48.95;38.05;60.16;;
74234;Laerm;62591;55.764;37.718;2023-05-10T06:12:35;49.41;40.40;62.69;;
74234;Laerm;62591;55.764;37.718;2023-05-10T06:15:04;47.79;40.87;54.32;;
74234;Laerm;62591;55.764;37.718;2023-05-10T06:17:35;47.56;39.51;58.11;;
74234;Laerm;62591;55.764;37.718;2023-05-10T06:20:04;47.19;39.60;60.13;;
74234;Laerm;62591;55.764;37.718;2023-05-10T06:22:33;49.25;41.71;55.30;;
74234;Laerm;62591;55.764;37.718;2023-05-10T06:25:02;48.48;41.42;59.97;;
74234;Laerm;62591;55.764;37.718;2023-05-10T06:27:30;47.96;41.25;55.98;;
74234;Laerm;62591;55.764;37.718;2023-05-10T06:29:59;50.56;41.03;73.88;;
74234;Laerm;62591;55.764;37.718;2023-05-10T06:32:41;47.74;39.84;67.93;;
74234;Laerm;62591;55.764;37.718;2023-05-10T06:35:11;50.81;41.48;66.49;;
74234;Laerm;62591;55.764;37.718;2023-05-10T06:37:39;47.38;39.16;56.17;;
74234;Laerm;62591;55.764;37.718;2023-05-10T06:40:11;48.63;43.78;60.88;;
74234;Laerm;62591;55.764;37.718;2023-05-10T06:42:47;46.51;40.55;51.77;;
74234;Laerm;62591;55.764;37.718;2023-05-10T06:45:20;48.01;41.54;53.55;;
74234;Laerm;62591;55.764;37.718;2023-05-10T06:47:50;49.97;41.75;55.53;;
74234;Laerm;62591;55.764;37.718;2023-05-10T06:50:18;63.99;44.25;77.53;;
74234;Laerm;62591;55.764;37.718;2023-05-10T06:52:47;61.23;42.37;76.53;;
74234;Laerm;62591;55.764;37.718;2023-05-10T06:55:19;50.67;41.82;64.27;;
74234;Laerm;62591;55.764;37.718;2023-05-10T06:57:47;52.56;45.57;62.56;;
74234;Laerm;62591;55.764;37.718;2023-05-10T07:00:17;49.03;42.38;55.34;;
74234;Laerm;62591;55.764;37.718;2023-05-10T07:02:46;49.68;44.60;58.38;;
74234;Laerm;62591;55.764;37.718;2023-05-10T07:05:17;49.48;40.79;56.59;;
74234;Laerm;62591;55.764;37.718;2023-05-10T07:07:46;49.10;41.64;63.08;;
74234;Laerm;62591;55.764;37.718;2023-05-10T07:10:14;49.16;40.82;57.07;;
74234;Laerm;62591;55.764;37.718;2023-05-10T07:12:43;47.80;40.98;60.86;;
74234;Laerm;62591;55.764;37.718;2023-05-10T07:15:12;50.09;42.13;62.62;;
74234;Laerm;62591;55.764;37.718;2023-05-10T07:17:40;49.89;40.89;61.24;;
74234;Laerm;62591;55.764;37.718;2023-05-10T07:20:12;48.59;42.59;56.42;;
74234;Laerm;62591;55.764;37.718;2023-05-10T07:22:42;47.29;39.63;56.25;;
74234;Laerm;62591;55.764;37.718;2023-05-10T07:25:10;46.73;39.74;57.26;;
74234;Laerm;62591;55.764;37.718;2023-05-10T07:27:39;49.37;40.54;70.04;;
74234;Laerm;62591;55.764;37.718;2023-05-10T07:30:08;47.04;40.73;56.31;;
74234;Laerm;62591;55.764;37.718;2023-05-10T07:32:37;51.14;42.23;64.01;;
74234;Laerm;62591;55.764;37.718;2023-05-10T07:35:07;47.63;40.43;56.49;;
74234;Laerm;62591;55.764;37.718;2023-05-10T07:37:36;50.33;41.11;58.83;;
74234;Laerm;62591;55.764;37.718;2023-05-10T07:40:07;49.20;41.91;59.68;;
74234;Laerm;62591;55.764;37.718;2023-05-10T07:42:36;47.09;42.61;53.48;;
74234;Laerm;62591;55.764;37.718;2023-05-10T07:45:06;48.68;39.88;60.08;;
74234;Laerm;62591;55.764;37.718;2023-05-10T07:47:35;48.91;41.32;61.49;;
74234;Laerm;62591;55.764;37.718;2023-05-10T07:50:04;48.73;42.25;66.15;;
74234;Laerm;62591;55.764;37.718;2023-05-10T07:52:33;57.60;42.19;73.40;;
74234;Laerm;62591;55.764;37.718;2023-05-10T07:55:01;51.74;42.49;64.19;;
74234;Laerm;62591;55.764;37.718;2023-05-10T07:57:32;53.06;41.21;63.79;;
74234;Laerm;62591;55.764;37.718;2023-05-10T08:00:00;48.21;41.71;61.62;;
74234;Laerm;62591;55.764;37.718;2023-05-10T08:02:40;55.15;39.66;73.05;;
74234;Laerm;62591;55.764;37.718;2023-05-10T08:05:09;55.58;41.05;69.82;;
74234;Laerm;62591;55.764;37.718;2023-05-10T08:07:38;58.36;39.21;67.18;;
74234;Laerm;62591;55.764;37.718;2023-05-10T08:10:08;52.17;42.05;62.33;;
74234;Laerm;62591;55.764;37.718;2023-05-10T08:12:39;52.78;44.01;67.12;;
74234;Laerm;62591;55.764;37.718;2023-05-10T08:15:09;53.89;41.42;73.87;;
74234;Laerm;62591;55.764;37.718;2023-05-10T08:17:37;49.82;42.85;60.08;;
74234;Laerm;62591;55.764;37.718;2023-05-10T08:20:07;49.70;43.07;61.38;;
74234;Laerm;62591;55.764;37.718;2023-05-10T08:22:35;57.71;46.76;71.14;;
74234;Laerm;62591;55.764;37.718;2023-05-10T08:25:05;55.89;41.49;64.80;;
74234;Laerm;62591;55.764;37.718;2023-05-10T08:27:33;52.86;43.62;65.19;;
74234;Laerm;62591;55.764;37.718;2023-05-10T08:30:04;51.05;42.25;64.40;;
74234;Laerm;62591;55.764;37.718;2023-05-10T08:32:33;55.64;44.33;68.54;;
74234;Laerm;62591;55.764;37.718;2023-05-10T08:35:02;62.46;44.75;70.66;;
74234;Laerm;62591;55.764;37.718;2023-05-10T08:37:31;49.61;42.72;61.81;;
74234;Laerm;62591;55.764;37.718;2023-05-10T08:40:00;50.23;41.88;64.46;;
74234;Laerm;62591;55.764;37.718;2023-05-10T08:42:30;62.76;43.52;71.79;;
74234;Laerm;62591;55.764;37.718;2023-05-10T08:45:05;56.03;41.05;70.94;;
74234;Laerm;62591;55.764;37.718;2023-05-10T08:47:36;49.81;42.18;63.27;;
74234;Laerm;62591;55.764;37.718;2023-05-10T08:50:06;50.66;41.80;68.38;;
74234;Laerm;62591;55.764;37.718;2023-05-10T08:52:38;49.46;40.91;57.91;;
74234;Laerm;62591;55.764;37.718;2023-05-10T08:55:07;47.24;41.44;60.11;;
74234;Laerm;62591;55.764;37.718;2023-05-10T08:57:36;47.97;43.92;58.35;;
74234;Laerm;62591;55.764;37.718;2023-05-10T09:00:08;47.45;41.99;59.30;;
74234;Laerm;62591;55.764;37.718;2023-05-10T09:02:37;46.62;41.69;54.14;;
74234;Laerm;62591;55.764;37.718;2023-05-10T09:05:07;48.22;42.35;64.06;;
74234;Laerm;62591;55.764;37.718;2023-05-10T09:07:37;48.80;42.37;58.24;;
74234;Laerm;62591;55.764;37.718;2023-05-10T09:10:06;48.10;42.74;65.15;;
74234;Laerm;62591;55.764;37.718;2023-05-10T09:12:36;49.62;39.85;77.34;;
74234;Laerm;62591;55.764;37.718;2023-05-10T09:15:09;48.78;40.68;72.14;;
74234;Laerm;62591;55.764;37.718;2023-05-10T09:17:38;49.59;42.33;66.06;;
74234;Laerm;62591;55.764;37.718;2023-05-10T09:20:09;48.29;43.44;55.79;;
74234;Laerm;62591;55.764;37.718;2023-05-10T09:22:37;50.13;43.91;60.32;;
74234;Laerm;62591;55.764;37.718;2023-05-10T09:25:08;52.48;46.51;75.27;;
74234;Laerm;62591;55.764;37.718;2023-05-10T09:27:38;50.96;43.42;62.31;;
74234;Laerm;62591;55.764;37.718;2023-05-10T09:30:09;49.41;44.88;57.81;;
74234;Laerm;62591;55.764;37.718;2023-05-10T09:32:39;48.77;41.92;57.92;;
74234;Laerm;62591;55.764;37.718;2023-05-10T09:35:09;48.84;43.61;61.02;;
74234;Laerm;62591;55.764;37.718;2023-05-10T09:37:39;49.06;42.50;58.02;;
74234;Laerm;62591;55.764;37.718;2023-05-10T09:40:12;50.53;43.00;67.01;;
74234;Laerm;62591;55.764;37.718;2023-05-10T09:42:50;50.40;43.07;67.31;;
74234;Laerm;62591;55.764;37.718;2023-05-10T09:45:21;47.08;40.46;53.64;;
74234;Laerm;62591;55.764;37.718;2023-05-10T09:47:50;47.44;41.30;57.37;;
74234;Laerm;62591;55.764;37.718;2023-05-10T09:50:19;49.90;41.10;64.11;;
74234;Laerm;62591;55.764;37.718;2023-05-10T09:52:49;47.38;39.79;58.84;;
74234;Laerm;62591;55.764;37.718;2023-05-10T09:55:20;47.18;39.62;60.77;;
74234;Laerm;62591;55.764;37.718;2023-05-10T09:57:58;47.56;39.93;60.41;;
74234;Laerm;62591;55.764;37.718;2023-05-10T10:00:28;45.47;37.77;58.07;;
74234;Laerm;62591;55.764;37.718;2023-05-10T10:03:03;46.24;39.97;56.51;;
74234;Laerm;62591;55.764;37.718;2023-05-10T10:05:33;49.46;40.51;62.09;;
74234;Laerm;62591;55.764;37.718;2023-05-10T10:08:03;48.46;40.28;58.95;;
74234;Laerm;62591;55.764;37.718;2023-05-10T10:10:33;48.82;40.86;59.89;;
74234;Laerm;62591;55.764;37.718;2023-05-10T10:13:02;48.92;39.38;55.21;;
74234;Laerm;62591;55.764;37.718;2023-05-10T10:15:34;48.45;41.19;62.70;;
74234;Laerm;62591;55.764;37.718;2023-05-10T10:18:03;45.79;39.69;52.36;;
74234;Laerm;62591;55.764;37.718;2023-05-10T10:20:33;48.38;38.69;55.85;;
74234;Laerm;62591;55.764;37.718;2023-05-10T10:23:02;45.21;39.09;53.48;;
74234;Laerm;62591;55.764;37.718;2023-05-10T10:25:31;47.51;40.29;55.57;;
74234;Laerm;62591;55.764;37.718;2023-05-10T10:28:16;52.96;42.33;81.97;;
74234;Laerm;62591;55.764;37.718;2023-05-10T10:30:51;48.26;41.37;58.96;;
74234;Laerm;62591;55.764;37.718;2023-05-10T10:33:39;47.34;41.95;54.36;;
74234;Laerm;62591;55.764;37.718;2023-05-10T10:36:08;48.46;42.97;55.41;;
74234;Laerm;62591;55.764;37.718;2023-05-10T10:38:54;51.65;42.92;59.06;;
74234;Laerm;62591;55.764;37.718;2023-05-10T10:41:28;49.27;42.39;59.02;;
74234;Laerm;62591;55.764;37.718;2023-05-10T10:44:37;48.16;40.75;61.33;;
74234;Laerm;62591;55.764;37.718;2023-05-10T10:47:27;48.34;40.55;60.97;;
74234;Laerm;62591;55.764;37.718;2023-05-10T10:50:05;48.46;40.31;63.19;;
74234;Laerm;62591;55.764;37.718;2023-05-10T10:52:35;47.41;40.19;58.70;;
74234;Laerm;62591;55.764;37.718;2023-05-10T10:55:05;47.49;40.07;64.53;;
74234;Laerm;62591;55.764;37.718;2023-05-10T10:57:45;47.65;41.31;54.79;;
74234;Laerm;62591;55.764;37.718;2023-05-10T11:00:19;52.63;43.53;66.93;;
74234;Laerm;62591;55.764;37.718;2023-05-10T11:02:51;64.34;42.68;77.39;;
74234;Laerm;62591;55.764;37.718;2023-05-10T11:08:15;47.89;41.26;54.69;;
74234;Laerm;62591;55.764;37.718;2023-05-10T11:10:53;51.24;42.99;61.40;;
74234;Laerm;62591;55.764;37.718;2023-05-10T11:13:32;51.23;40.85;66.42;;
74234;Laerm;62591;55.764;37.718;2023-05-10T11:16:14;48.72;40.79;63.44;;
74234;Laerm;62591;55.764;37.718;2023-05-10T11:18:58;60.86;40.89;79.64;;
74234;Laerm;62591;55.764;37.718;2023-05-10T11:21:29;61.93;39.95;78.31;;
74234;Laerm;62591;55.764;37.718;2023-05-10T11:24:13;47.49;40.04;61.17;;
74234;Laerm;62591;55.764;37.718;2023-05-10T11:26:42;47.78;40.63;57.34;;
74234;Laerm;62591;55.764;37.718;2023-05-10T11:29:12;48.29;42.00;57.09;;
74234;Laerm;62591;55.764;37.718;2023-05-10T11:31:44;47.97;41.03;61.01;;
74234;Laerm;62591;55.764;37.718;2023-05-10T11:34:24;48.86;40.35;62.69;;
74234;Laerm;62591;55.764;37.718;2023-05-10T11:36:54;49.05;41.95;59.44;;
74234;Laerm;62591;55.764;37.718;2023-05-10T11:39:26;52.44;43.20;69.07;;
74234;Laerm;62591;55.764;37.718;2023-05-10T11:41:55;50.36;43.22;59.50;;
74234;Laerm;62591;55.764;37.718;2023-05-10T11:44:23;50.89;41.54;61.54;;
74234;Laerm;62591;55.764;37.718;2023-05-10T11:46:58;51.23;44.17;68.50;;
74234;Laerm;62591;55.764;37.718;2023-05-10T11:49:28;51.92;47.19;59.74;;
74234;Laerm;62591;55.764;37.718;2023-05-10T11:52:04;49.84;42.19;59.18;;
74234;Laerm;62591;55.764;37.718;2023-05-10T11:54:33;46.96;42.34;57.67;;
74234;Laerm;62591;55.764;37.718;2023-05-10T11:57:03;50.60;44.06;59.72;;
74234;Laerm;62591;55.764;37.718;2023-05-10T11:59:32;49.60;43.78;57.17;;
74234;Laerm;62591;55.764;37.718;2023-05-10T12:02:00;49.80;42.94;58.91;;
74234;Laerm;62591;55.764;37.718;2023-05-10T12:04:31;47.58;41.17;55.40;;
74234;Laerm;62591;55.764;37.718;2023-05-10T12:07:00;49.11;42.88;60.41;;
74234;Laerm;62591;55.764;37.718;2023-05-10T12:09:29;50.96;45.23;64.62;;
74234;Laerm;62591;55.764;37.718;2023-05-10T12:12:10;51.81;44.14;61.43;;
74234;Laerm;62591;55.764;37.718;2023-05-10T12:14:38;52.11;45.90;63.62;;
74234;Laerm;62591;55.764;37.718;2023-05-10T12:17:11;50.43;45.15;59.95;;
74234;Laerm;62591;55.764;37.718;2023-05-10T12:19:41;50.21;44.91;59.49;;
74234;Laerm;62591;55.764;37.718;2023-05-10T12:22:10;54.95;45.53;68.22;;
74234;Laerm;62591;55.764;37.718;2023-05-10T12:24:39;50.80;44.34;60.01;;
74234;Laerm;62591;55.764;37.718;2023-05-10T12:27:08;50.17;42.85;58.63;;
74234;Laerm;62591;55.764;37.718;2023-05-10T12:29:41;51.14;42.45;59.78;;
74234;Laerm;62591;55.764;37.718;2023-05-10T12:32:11;48.71;40.78;59.29;;
74234;Laerm;62591;55.764;37.718;2023-05-10T12:34:41;49.60;43.84;59.44;;
74234;Laerm;62591;55.764;37.718;2023-05-10T12:37:10;51.64;43.73;61.80;;
74234;Laerm;62591;55.764;37.718;2023-05-10T12:39:39;50.66;44.36;59.69;;
74234;Laerm;62591;55.764;37.718;2023-05-10T12:42:09;49.96;43.46;72.17;;
74234;Laerm;62591;55.764;37.718;2023-05-10T12:44:39;52.34;48.34;61.26;;
74234;Laerm;62591;55.764;37.718;2023-05-10T12:47:07;52.62;46.14;62.99;;
74234;Laerm;62591;55.764;37.718;2023-05-10T12:49:36;51.10;45.73;64.91;;
74234;Laerm;62591;55.764;37.718;2023-05-10T12:52:06;50.29;44.85;57.62;;
74234;Laerm;62591;55.764;37.718;2023-05-10T12:54:34;50.89;46.54;63.10;;
74234;Laerm;62591;55.764;37.718;2023-05-10T12:57:03;51.29;45.84;57.91;;
74234;Laerm;62591;55.764;37.718;2023-05-10T12:59:31;51.51;45.84;61.35;;
74234;Laerm;62591;55.764;37.718;2023-05-10T13:02:03;50.81;46.14;57.10;;
74234;Laerm;62591;55.764;37.718;2023-05-10T13:04:32;48.84;43.17;63.18;;
74234;Laerm;62591;55.764;37.718;2023-05-10T13:07:01;51.65;41.29;60.83;;
74234;Laerm;62591;55.764;37.718;2023-05-10T13:09:32;49.97;41.73;59.96;;
74234;Laerm;62591;55.764;37.718;2023-05-10T13:12:00;49.36;43.36;63.81;;
74234;Laerm;62591;55.764;37.718;2023-05-10T13:14:29;48.80;43.59;58.85;;
74234;Laerm;62591;55.764;37.718;2023-05-10T13:16:58;49.23;42.41;64.40;;
74234;Laerm;62591;55.764;37.718;2023-05-10T13:19:27;48.84;42.43;56.65;;
74234;Laerm;62591;55.764;37.718;2023-05-10T13:21:55;50.04;43.50;67.14;;
74234;Laerm;62591;55.764;37.718;2023-05-10T13:24:24;49.67;42.77;62.16;;
74234;Laerm;62591;55.764;37.718;2023-05-10T13:26:54;49.67;41.42;60.73;;
74234;Laerm;62591;55.764;37.718;2023-05-10T13:29:22;51.49;43.77;65.48;;
74234;Laerm;62591;55.764;37.718;2023-05-10T13:31:51;51.34;44.16;60.25;;
74234;Laerm;62591;55.764;37.718;2023-05-10T13:34:19;50.34;44.32;63.48;;
74234;Laerm;62591;55.764;37.718;2023-05-10T13:36:48;48.86;41.84;63.48;;
74234;Laerm;62591;55.764;37.718;2023-05-10T13:39:16;49.98;42.65;60.67;;
74234;Laerm;62591;55.764;37.718;2023-05-10T13:41:45;48.91;42.82;59.38;;
74234;Laerm;62591;55.764;37.718;2023-05-10T13:44:15;50.71;41.97;59.19;;
74234;Laerm;62591;55.764;37.718;2023-05-10T13:46:44;49.28;41.47;60.20;;
74234;Laerm;62591;55.764;37.718;2023-05-10T13:49:12;48.82;41.99;69.38;;
74234;Laerm;62591;55.764;37.718;2023-05-10T13:51:44;50.84;42.56;63.72;;
74234;Laerm;62591;55.764;37.718;2023-05-10T13:54:12;51.23;43.85;62.50;;
74234;Laerm;62591;55.764;37.718;2023-05-10T13:56:42;48.96;41.90;58.40;;
74234;Laerm;62591;55.764;37.718;2023-05-10T13:59:11;48.36;39.82;62.78;;